createdAt,value
2024-03-28T00:00:36.850Z,9.30
2024-03-28T00:03:29.089Z,10.60
2024-03-28T00:06:01.767Z,12.40
2024-03-28T00:08:34.850Z,10.60
2024-03-28T00:11:07.256Z,9.20
2024-03-28T00:13:38.926Z,16.10
2024-03-28T00:16:10.967Z,13.30
2024-03-28T00:18:42.499Z,6.00
2024-03-28T00:21:14.146Z,5.90
2024-03-28T00:23:46.899Z,4.60
2024-03-28T00:26:19.151Z,12.60
2024-03-28T00:28:50.668Z,6.70
2024-03-28T00:31:22.500Z,10.30
2024-03-28T00:33:54.003Z,6.30
2024-03-28T00:36:25.845Z,11.60
2024-03-28T00:38:57.721Z,15.30
2024-03-28T00:41:29.671Z,8.20
2024-03-28T00:44:01.140Z,7.70
2024-03-28T00:46:32.796Z,12.40
2024-03-28T00:49:04.413Z,22.00
2024-03-28T00:51:35.931Z,12.80
2024-03-28T00:54:07.727Z,12.40
2024-03-28T00:56:39.228Z,10.20
2024-03-28T00:59:10.821Z,3.40
2024-03-28T01:01:42.405Z,11.10
2024-03-28T01:04:16.250Z,7.10
2024-03-28T01:06:48.018Z,4.70
2024-03-28T01:09:19.725Z,2.70
2024-03-28T01:11:51.210Z,7.50
2024-03-28T01:14:22.879Z,5.20
2024-03-28T01:16:54.404Z,6.80
2024-03-28T01:19:26.240Z,6.70
2024-03-28T01:21:57.977Z,5.00
2024-03-28T01:24:31.195Z,6.80
2024-03-28T01:27:02.785Z,3.90
2024-03-28T01:29:34.378Z,5.70
2024-03-28T01:32:06.332Z,9.30
2024-03-28T01:34:37.990Z,14.80
2024-03-28T01:37:11.686Z,2.20
2024-03-28T01:39:44.991Z,7.10
2024-03-28T01:42:17.102Z,8.10
2024-03-28T01:44:48.985Z,8.30
2024-03-28T01:47:36.333Z,10.10
2024-03-28T01:50:13.659Z,3.60
2024-03-28T01:52:45.285Z,3.30
2024-03-28T01:55:17.244Z,8.00
2024-03-28T01:57:51.005Z,4.80
2024-03-28T02:00:23.092Z,3.90
2024-03-28T02:02:54.912Z,3.00
2024-03-28T02:05:26.442Z,3.20
2024-03-28T02:07:58.190Z,2.70
2024-03-28T02:10:31.255Z,7.60
2024-03-28T02:13:04.605Z,8.80
2024-03-28T02:15:36.464Z,3.70
2024-03-28T02:18:08.754Z,4.90
2024-03-28T02:20:40.168Z,7.50
2024-03-28T02:23:13.163Z,6.20
2024-03-28T02:25:48.385Z,3.70
2024-03-28T02:28:20.093Z,3.30
2024-03-28T02:34:15.048Z,5.70
2024-03-28T02:36:53.266Z,4.10
2024-03-28T02:39:33.808Z,3.30
2024-03-28T02:42:30.390Z,5.40
2024-03-28T02:45:16.282Z,5.70
2024-03-28T02:47:55.820Z,3.70
2024-03-28T02:50:43.450Z,3.30
2024-03-28T02:53:29.224Z,7.90
2024-03-28T02:56:10.919Z,8.00
2024-03-28T02:58:48.361Z,5.50
2024-03-28T03:01:48.998Z,6.70
2024-03-28T03:04:22.577Z,7.80
2024-03-28T03:07:12.147Z,5.10
2024-03-28T03:10:01.123Z,5.70
2024-03-28T03:12:40.512Z,8.20
2024-03-28T03:15:29.311Z,9.40
2024-03-28T03:18:10.013Z,5.50
2024-03-28T03:20:52.193Z,7.40
2024-03-28T03:23:30.148Z,6.80
2024-03-28T03:26:15.845Z,10.00
2024-03-28T03:29:06.935Z,10.50
2024-03-28T03:32:00.473Z,8.20
2024-03-28T03:34:55.329Z,4.40
2024-03-28T03:37:39.598Z,6.40
2024-03-28T03:40:23.096Z,8.90
2024-03-28T03:43:05.125Z,11.00
2024-03-28T03:45:51.346Z,12.30
2024-03-28T03:48:48.324Z,17.10
2024-03-28T03:51:26.881Z,10.40
2024-03-28T03:54:17.981Z,5.40
2024-03-28T03:56:58.334Z,3.20
2024-03-28T03:59:39.679Z,5.80
2024-03-28T04:02:20.997Z,5.40
2024-03-28T04:05:07.063Z,7.50
2024-03-28T04:07:50.559Z,8.20
2024-03-28T04:10:34.873Z,8.20
2024-03-28T04:13:17.330Z,7.50
2024-03-28T04:15:53.592Z,10.20
2024-03-28T04:18:30.927Z,15.00
2024-03-28T04:21:13.687Z,6.70
2024-03-28T04:23:52.309Z,1.70
2024-03-28T04:26:39.571Z,8.50
2024-03-28T04:29:24.983Z,8.30
2024-03-28T04:32:02.321Z,11.60
2024-03-28T04:34:39.839Z,5.30
2024-03-28T04:37:15.066Z,7.80
2024-03-28T04:39:54.465Z,9.00
2024-03-28T04:42:37.788Z,9.30
2024-03-28T04:45:25.636Z,5.90
2024-03-28T04:48:04.107Z,3.30
2024-03-28T04:50:42.390Z,3.80
2024-03-28T04:53:17.195Z,1.40
2024-03-28T04:55:52.375Z,10.40
2024-03-28T04:58:33.654Z,4.40
2024-03-28T05:01:14.316Z,7.40
2024-03-28T05:03:56.245Z,5.30
2024-03-28T05:06:39.719Z,2.00
2024-03-28T05:09:17.419Z,6.60
2024-03-28T05:11:51.558Z,2.20
2024-03-28T05:14:23.302Z,4.30
2024-03-28T05:16:55.294Z,10.80
2024-03-28T05:19:26.857Z,4.40
2024-03-28T05:21:58.634Z,3.80
2024-03-28T05:24:32.713Z,4.90
2024-03-28T05:27:08.950Z,4.80
2024-03-28T05:29:49.505Z,3.40
2024-03-28T05:32:27.264Z,3.80
2024-03-28T05:35:07.798Z,13.30
2024-03-28T05:37:40.830Z,9.10
2024-03-28T05:40:16.327Z,2.90
2024-03-28T05:42:54.053Z,4.20
2024-03-28T05:45:29.956Z,5.40
2024-03-28T05:48:03.873Z,8.10
2024-03-28T05:50:38.932Z,6.90
2024-03-28T05:53:15.844Z,8.40
2024-03-28T05:56:02.620Z,3.20
2024-03-28T05:58:37.702Z,5.10
2024-03-28T06:01:12.575Z,2.10
2024-03-28T06:03:47.223Z,7.70
2024-03-28T06:06:21.698Z,5.10
2024-03-28T06:09:03.141Z,5.70
2024-03-28T06:11:47.040Z,8.40
2024-03-28T06:14:21.791Z,2.80
2024-03-28T06:17:02.217Z,3.80
2024-03-28T06:19:38.780Z,4.10
2024-03-28T06:22:12.547Z,6.00
2024-03-28T06:24:47.104Z,7.20
2024-03-28T06:27:29.776Z,5.70
2024-03-28T06:30:05.569Z,3.70
2024-03-28T06:32:43.782Z,9.50
2024-03-28T06:35:23.142Z,13.20
2024-03-28T06:38:07.870Z,6.00
2024-03-28T06:40:42.468Z,7.20
2024-03-28T06:43:20.147Z,4.90
2024-03-28T06:45:56.847Z,10.70
2024-03-28T06:48:39.746Z,5.10
2024-03-28T06:51:18.786Z,11.10
2024-03-28T06:53:55.784Z,8.00
2024-03-28T06:56:30.439Z,4.70
2024-03-28T06:59:03.437Z,9.30
2024-03-28T07:01:47.868Z,8.20
2024-03-28T07:04:21.222Z,2.90
2024-03-28T07:06:57.608Z,13.40
2024-03-28T07:09:32.197Z,5.80
2024-03-28T07:12:09.347Z,6.60
2024-03-28T07:14:47.063Z,10.80
2024-03-28T07:17:28.909Z,5.20
2024-03-28T07:20:02.157Z,3.20
2024-03-28T07:22:37.798Z,2.30
2024-03-28T07:25:32.975Z,2.30
2024-03-28T07:28:08.921Z,5.70
2024-03-28T07:30:43.020Z,11.50
2024-03-28T07:33:18.180Z,6.30
2024-03-28T07:35:58.256Z,14.90
2024-03-28T07:38:31.366Z,7.90
2024-03-28T07:41:10.259Z,6.80
2024-03-28T07:43:47.020Z,8.90
2024-03-28T07:46:22.145Z,8.30
2024-03-28T07:48:57.643Z,7.00
2024-03-28T07:51:35.307Z,11.70
2024-03-28T07:54:09.428Z,9.00
2024-03-28T07:56:50.734Z,10.10
2024-03-28T07:59:28.294Z,6.50
2024-03-28T08:02:00.806Z,5.50
2024-03-28T08:04:36.551Z,7.70
2024-03-28T08:07:12.001Z,6.50
2024-03-28T08:09:49.051Z,8.90
2024-03-28T08:12:27.097Z,9.60
2024-03-28T08:15:16.781Z,5.90
2024-03-28T08:17:57.840Z,6.70
2024-03-28T08:20:30.944Z,7.30
2024-03-28T08:23:03.299Z,9.40
2024-03-28T08:25:39.653Z,8.40
2024-03-28T08:28:11.890Z,5.70
2024-03-28T08:30:44.383Z,9.50
2024-03-28T08:33:16.181Z,8.60
2024-03-28T08:35:48.084Z,5.90
2024-03-28T08:38:19.990Z,7.70
2024-03-28T08:40:52.316Z,9.40
2024-03-28T08:43:24.313Z,7.70
2024-03-28T08:45:56.256Z,9.70
2024-03-28T08:48:28.312Z,11.70
2024-03-28T08:51:00.487Z,7.30
2024-03-28T08:53:32.190Z,10.00
2024-03-28T08:56:04.342Z,6.90
2024-03-28T08:58:36.323Z,9.30
2024-03-28T09:01:08.848Z,8.90
2024-03-28T09:03:40.773Z,16.10
2024-03-28T09:06:12.764Z,16.10
2024-03-28T09:08:44.726Z,14.20
2024-03-28T09:11:17.419Z,15.40
2024-03-28T09:13:49.023Z,7.90
2024-03-28T09:16:21.865Z,15.90
2024-03-28T09:18:53.585Z,18.60
2024-03-28T09:21:25.321Z,12.30
2024-03-28T09:23:57.044Z,27.00
2024-03-28T09:26:29.444Z,14.60
2024-03-28T09:29:01.164Z,21.20
2024-03-28T09:31:33.811Z,17.90
2024-03-28T09:34:07.319Z,10.80
2024-03-28T09:36:39.369Z,11.60
2024-03-28T09:39:16.190Z,28.90
2024-03-28T09:41:50.404Z,17.70
2024-03-28T09:44:24.289Z,14.70
2024-03-28T09:46:59.532Z,17.90
2024-03-28T09:49:31.739Z,15.70
2024-03-28T09:52:05.076Z,25.40
2024-03-28T09:54:42.702Z,17.10
2024-03-28T09:57:14.669Z,17.00
2024-03-28T09:59:46.319Z,23.00
2024-03-28T10:02:40.976Z,18.20
2024-03-28T10:05:13.860Z,21.40
2024-03-28T10:07:45.826Z,18.90
2024-03-28T10:10:18.384Z,17.70
2024-03-28T10:12:56.934Z,26.20
2024-03-28T10:15:30.239Z,29.40
2024-03-28T10:18:03.623Z,20.50
2024-03-28T10:20:36.575Z,16.40
2024-03-28T10:23:13.219Z,33.60
2024-03-28T10:25:47.699Z,15.20
2024-03-28T10:28:23.963Z,28.80
2024-03-28T10:30:55.983Z,25.80
2024-03-28T10:33:27.905Z,23.20
2024-03-28T10:36:00.950Z,29.00
2024-03-28T10:38:33.545Z,22.90
2024-03-28T10:41:06.903Z,38.50
2024-03-28T10:43:38.758Z,31.20
2024-03-28T10:46:16.808Z,16.40
2024-03-28T10:48:50.048Z,31.90
2024-03-28T10:51:32.098Z,25.30
2024-03-28T10:54:15.828Z,26.00
2024-03-28T10:56:52.512Z,25.30
2024-03-28T10:59:29.312Z,23.60
2024-03-28T11:02:05.124Z,29.30
2024-03-28T11:07:51.721Z,14.20
2024-03-28T11:10:24.095Z,38.80
2024-03-28T11:12:58.840Z,20.90
2024-03-28T11:15:34.712Z,34.80
2024-03-28T11:18:09.436Z,22.40
2024-03-28T11:20:52.283Z,25.00
2024-03-28T11:23:24.436Z,27.80
2024-03-28T11:26:06.479Z,22.00
2024-03-28T11:28:41.050Z,23.50
2024-03-28T11:31:15.506Z,18.10
2024-03-28T11:33:47.927Z,18.10
2024-03-28T11:36:21.309Z,16.60
2024-03-28T11:42:35.926Z,26.10
2024-03-28T11:45:18.648Z,16.60
2024-03-28T11:48:00.319Z,24.90
2024-03-28T11:50:33.090Z,29.80
2024-03-28T11:53:05.326Z,22.50
2024-03-28T11:55:42.206Z,23.70
2024-03-28T11:58:18.547Z,20.90
2024-03-28T12:00:51.044Z,34.00
2024-03-28T12:03:23.018Z,19.90
2024-03-28T12:05:57.524Z,26.80
2024-03-28T12:08:38.028Z,18.60
2024-03-28T12:11:13.598Z,23.30
2024-03-28T12:13:50.303Z,28.00
2024-03-28T12:16:22.493Z,28.50
2024-03-28T12:18:54.411Z,31.50
2024-03-28T12:21:27.299Z,28.60
2024-03-28T12:23:59.726Z,27.30
2024-03-28T12:26:32.857Z,29.20
2024-03-28T12:29:04.823Z,28.30
2024-03-28T12:31:36.873Z,23.60
2024-03-28T12:34:16.389Z,18.70
2024-03-28T12:36:48.423Z,24.40
2024-03-28T12:39:25.660Z,25.70
2024-03-28T12:42:00.506Z,28.50
2024-03-28T12:44:33.000Z,34.30
2024-03-28T12:47:05.337Z,22.30
2024-03-28T12:49:37.656Z,34.70
2024-03-28T12:52:10.361Z,23.30
2024-03-28T12:54:42.437Z,22.40
2024-03-28T12:57:23.519Z,25.00
2024-03-28T13:00:00.727Z,21.50
2024-03-28T13:02:34.928Z,30.10
2024-03-28T13:05:10.198Z,23.80
2024-03-28T13:07:49.111Z,17.90
2024-03-28T13:10:23.516Z,15.80
2024-03-28T13:12:58.838Z,21.20
2024-03-28T13:15:33.025Z,30.20
2024-03-28T13:21:26.731Z,18.70
2024-03-28T13:24:09.524Z,20.80
2024-03-28T13:27:17.093Z,30.70
2024-03-28T13:29:45.752Z,27.20
2024-03-28T13:32:22.720Z,18.30
2024-03-28T13:34:58.027Z,23.70
2024-03-28T13:37:32.801Z,37.70
2024-03-28T13:40:14.737Z,25.00
2024-03-28T13:42:53.523Z,26.70
2024-03-28T13:45:26.792Z,36.80
2024-03-28T13:48:04.303Z,17.30
2024-03-28T13:50:44.546Z,28.00
2024-03-28T13:53:44.276Z,24.40
2024-03-28T13:56:18.801Z,21.40
2024-03-28T13:58:55.317Z,21.30
2024-03-28T14:01:39.393Z,32.80
2024-03-28T14:18:44.593Z,17.90
2024-03-28T14:21:16.985Z,23.20
2024-03-28T14:23:49.715Z,22.20
2024-03-28T14:26:21.705Z,22.10
2024-03-28T14:28:57.160Z,14.20
2024-03-28T14:31:36.858Z,21.90
2024-03-28T14:34:17.167Z,21.10
2024-03-28T14:36:51.340Z,23.20
2024-03-28T14:39:34.018Z,21.00
2024-03-28T14:42:07.381Z,28.50
2024-03-28T14:44:41.304Z,18.50
2024-03-28T14:50:04.339Z,22.30
2024-03-28T14:52:47.260Z,25.10
2024-03-28T14:55:32.891Z,22.30
2024-03-28T14:58:07.169Z,13.50
2024-03-28T15:00:44.445Z,18.90
2024-03-28T15:03:19.330Z,24.90
2024-03-28T15:06:07.589Z,22.80
2024-03-28T15:08:44.248Z,20.30
2024-03-28T15:11:21.926Z,24.70
2024-03-28T15:14:01.737Z,21.20
2024-03-28T15:16:36.210Z,24.10
2024-03-28T15:19:09.880Z,24.90
2024-03-28T15:21:47.728Z,25.00
2024-03-28T15:24:26.010Z,20.60
2024-03-28T15:27:08.556Z,25.40
2024-03-28T15:29:41.797Z,30.80
2024-03-28T15:32:16.737Z,24.50
2024-03-28T15:34:54.267Z,30.80
2024-03-28T15:37:28.619Z,18.20
2024-03-28T15:40:04.488Z,29.10
2024-03-28T15:42:36.910Z,27.90
2024-03-28T15:45:15.611Z,22.90
2024-03-28T15:47:48.713Z,27.40
2024-03-28T15:50:23.056Z,29.70
2024-03-28T15:52:58.971Z,28.70
2024-03-28T15:55:34.635Z,23.70
2024-03-28T15:58:16.177Z,31.50
2024-03-28T16:00:50.456Z,31.10
2024-03-28T16:03:49.756Z,21.10
2024-03-28T16:06:27.901Z,28.50
2024-03-28T16:09:00.863Z,25.40
2024-03-28T16:11:43.649Z,21.20
2024-03-28T16:14:15.960Z,30.60
2024-03-28T16:16:48.600Z,28.90
2024-03-28T16:19:22.849Z,26.70
2024-03-28T16:21:56.397Z,34.00
2024-03-28T16:24:32.862Z,33.40
2024-03-28T16:27:09.407Z,38.40
2024-03-28T16:29:44.708Z,28.40
2024-03-28T16:32:17.818Z,28.90
2024-03-28T16:34:52.872Z,28.40
2024-03-28T16:37:31.702Z,37.20
2024-03-28T16:40:13.142Z,28.90
2024-03-28T16:42:49.602Z,38.40
2024-03-28T16:45:25.251Z,31.20
2024-03-28T16:48:00.193Z,26.20
2024-03-28T16:50:42.231Z,23.90
2024-03-28T16:53:20.807Z,21.10
2024-03-28T16:55:59.929Z,25.10
2024-03-28T16:58:36.638Z,21.10
2024-03-28T17:01:11.838Z,22.30
2024-03-28T17:03:49.190Z,22.30
2024-03-28T17:06:31.624Z,32.50
2024-03-28T17:09:10.276Z,27.90
2024-03-28T17:11:48.524Z,38.70
2024-03-28T17:14:24.366Z,24.30
2024-03-28T17:16:58.200Z,21.90
2024-03-28T17:19:34.359Z,35.20
2024-03-28T17:22:10.573Z,32.80
2024-03-28T17:24:46.338Z,29.80
2024-03-28T17:27:23.531Z,29.40
2024-03-28T17:29:57.098Z,31.50
2024-03-28T17:32:32.315Z,29.90
2024-03-28T17:35:08.808Z,22.70
2024-03-28T17:37:41.439Z,40.50
2024-03-28T17:40:20.066Z,29.00
2024-03-28T17:42:55.638Z,39.80
2024-03-28T17:45:27.376Z,25.00
2024-03-28T17:48:03.735Z,34.10
2024-03-28T17:50:38.475Z,32.80
2024-03-28T17:53:16.298Z,19.90
2024-03-28T17:55:49.265Z,23.60
2024-03-28T17:58:21.490Z,30.30
2024-03-28T18:01:10.333Z,29.00
2024-03-28T18:03:44.611Z,33.00
2024-03-28T18:06:19.596Z,22.20
2024-03-28T18:11:31.541Z,28.50
2024-03-28T18:14:07.302Z,22.80
2024-03-28T18:16:40.232Z,41.70
2024-03-28T18:19:14.929Z,30.10
2024-03-28T18:21:52.912Z,23.80
2024-03-28T18:24:30.229Z,32.20
2024-03-28T18:27:03.129Z,25.30
2024-03-28T18:29:54.552Z,19.80
2024-03-28T18:32:27.969Z,27.10
2024-03-28T18:35:02.102Z,21.50
2024-03-28T18:37:35.946Z,33.70
2024-03-28T18:40:16.578Z,25.70
2024-03-28T18:42:52.990Z,27.70
2024-03-28T18:45:26.675Z,21.80
2024-03-28T18:48:02.590Z,18.50
2024-03-28T18:53:07.309Z,25.60
2024-03-28T18:55:38.885Z,23.50
2024-03-28T18:58:10.600Z,25.20
2024-03-28T19:00:43.471Z,36.50
2024-03-28T19:03:15.764Z,28.40
2024-03-28T19:05:48.384Z,27.50
2024-03-28T19:08:20.486Z,35.40
2024-03-28T19:10:53.792Z,38.70
2024-03-28T19:13:26.228Z,29.80
2024-03-28T19:16:01.316Z,34.40
2024-03-28T19:18:33.636Z,32.40
2024-03-28T19:21:05.726Z,17.00
2024-03-28T19:23:37.790Z,22.10
2024-03-28T19:26:14.331Z,28.90
2024-03-28T19:28:48.734Z,32.40
2024-03-28T19:34:54.230Z,23.60
2024-03-28T19:37:26.271Z,24.70
2024-03-28T19:39:58.768Z,29.50
2024-03-28T19:42:34.229Z,24.20
2024-03-28T19:45:06.581Z,39.00
2024-03-28T19:47:38.506Z,30.70
2024-03-28T19:50:12.776Z,26.00
2024-03-28T19:52:45.566Z,23.10
2024-03-28T19:55:18.135Z,23.10
2024-03-28T19:57:50.001Z,25.90
2024-03-28T20:00:23.314Z,26.70
2024-03-28T20:02:55.438Z,25.10
2024-03-28T20:05:27.571Z,19.60
2024-03-28T20:08:04.703Z,29.00
2024-03-28T20:10:36.783Z,37.20
2024-03-28T20:13:08.796Z,24.10
2024-03-28T20:15:40.802Z,27.90
2024-03-28T20:18:12.461Z,29.10
2024-03-28T20:20:44.287Z,33.50
2024-03-28T20:23:16.408Z,28.80
2024-03-28T20:25:48.586Z,16.80
2024-03-28T20:28:20.569Z,38.70
2024-03-28T20:30:57.884Z,36.40
2024-03-28T20:33:33.459Z,20.20
2024-03-28T20:36:07.278Z,24.50
2024-03-28T20:38:39.564Z,20.50
2024-03-28T20:41:11.642Z,37.70
2024-03-28T20:43:47.659Z,38.20
2024-03-28T20:48:50.909Z,38.40
2024-03-28T20:51:23.177Z,23.30
2024-03-28T20:53:55.574Z,28.10
2024-03-28T20:56:30.857Z,30.20
2024-03-28T20:59:04.081Z,25.80
2024-03-28T21:01:36.499Z,58.00
2024-03-28T21:04:10.477Z,27.30
2024-03-28T21:07:07.285Z,48.90
2024-03-28T21:09:56.065Z,23.60
2024-03-28T21:12:29.390Z,39.30
2024-03-28T21:15:02.176Z,37.20
2024-03-28T21:17:36.268Z,31.80
2024-03-28T21:20:10.797Z,36.30
2024-03-28T21:22:53.688Z,28.80
2024-03-28T21:25:27.720Z,20.40
2024-03-28T21:27:59.718Z,31.20
2024-03-28T21:30:33.904Z,31.90
2024-03-28T21:33:08.716Z,30.50
2024-03-28T21:35:46.166Z,22.30
2024-03-28T21:38:20.370Z,26.00
2024-03-28T21:40:57.020Z,31.80
2024-03-28T21:43:30.199Z,25.20
2024-03-28T21:46:04.114Z,19.30
2024-03-28T21:48:38.560Z,25.60
2024-03-28T21:51:13.475Z,38.30
2024-03-28T21:53:46.758Z,32.00
2024-03-28T21:56:20.775Z,43.40
2024-03-28T21:58:53.746Z,39.10
2024-03-28T22:01:25.757Z,38.50
2024-03-28T22:03:57.656Z,19.50
2024-03-28T22:06:29.721Z,25.00
2024-03-28T22:09:01.978Z,35.80
2024-03-28T22:11:34.181Z,30.10
2024-03-28T22:14:08.354Z,29.80
2024-03-28T22:16:43.628Z,29.90
2024-03-28T22:19:18.711Z,30.30
2024-03-28T22:21:51.035Z,32.50
2024-03-28T22:24:23.010Z,38.90
2024-03-28T22:26:54.973Z,50.80
2024-03-28T22:29:28.762Z,28.90
2024-03-28T22:32:01.409Z,35.40
2024-03-28T22:34:36.423Z,36.00
2024-03-28T22:37:10.435Z,32.70
2024-03-28T22:39:42.425Z,39.10
2024-03-28T22:42:14.816Z,45.20
2024-03-28T22:44:53.196Z,29.40
2024-03-28T22:47:25.106Z,30.80
2024-03-28T22:49:57.737Z,32.90
2024-03-28T22:52:30.255Z,37.40
2024-03-28T22:55:02.584Z,33.50
2024-03-28T22:57:37.493Z,28.70
2024-03-28T23:00:12.281Z,33.10
2024-03-28T23:05:15.565Z,34.00
2024-03-28T23:07:48.554Z,32.50
2024-03-28T23:10:21.183Z,29.10
2024-03-28T23:12:53.116Z,39.80
2024-03-28T23:15:24.817Z,45.70
2024-03-28T23:17:56.307Z,32.60
2024-03-28T23:20:29.448Z,32.00
2024-03-28T23:23:01.407Z,40.10
2024-03-28T23:25:33.308Z,30.50
2024-03-28T23:28:05.560Z,37.40
2024-03-28T23:30:38.637Z,36.00
2024-03-28T23:33:11.195Z,36.50
2024-03-28T23:35:43.187Z,42.60
2024-03-28T23:38:15.718Z,55.60
2024-03-28T23:40:50.928Z,41.10
2024-03-28T23:43:23.539Z,26.20
2024-03-28T23:45:56.440Z,35.70
2024-03-28T23:48:28.182Z,43.40
2024-03-28T23:51:00.366Z,34.60
2024-03-28T23:53:36.495Z,36.40
2024-03-28T23:56:09.288Z,37.50
2024-03-28T23:58:42.813Z,34.00
